Time;durP1;ratioP1;P1;durP2;ratioP2;P2;SDS_P1;SDS_P2;PMS_P1;PMS_P2;Temp;Humidity;BMP_temperature;BMP_pressure;BME280_temperature;BME280_humidity;BME280_pressure;Samples;Min_cycle;Max_cycle;Signal;HPM_P1;HPM_P2
2023/08/10 00:00:15;;;;;;;71.10;66.45;;;13.70;99.90;;;;;;4972453;28;20053;-81
2023/08/10 00:02:42;;;;;;;62.85;59.13;;;13.60;99.90;;;;;;4971703;28;20046;-81
2023/08/10 00:05:09;;;;;;;89.85;84.50;;;13.60;99.90;;;;;;4989960;28;20374;-81
2023/08/10 00:07:36;;;;;;;68.82;64.38;;;13.50;99.90;;;;;;4988490;28;20034;-81
2023/08/10 00:10:03;;;;;;;65.47;61.47;;;13.40;99.90;;;;;;4989635;28;20578;-81
2023/08/10 00:12:29;;;;;;;71.40;67.03;;;13.40;99.90;;;;;;4988527;28;20088;-81
2023/08/10 00:14:55;;;;;;;78.45;73.78;;;13.30;99.90;;;;;;4987968;28;20093;-81
2023/08/10 00:17:21;;;;;;;73.57;69.18;;;13.20;99.90;;;;;;4972315;28;20070;-81
2023/08/10 00:19:46;;;;;;;73.43;68.93;;;13.20;99.90;;;;;;5003399;28;20390;-81
2023/08/10 00:22:13;;;;;;;77.85;73.18;;;13.20;99.90;;;;;;5007554;28;20053;-81
2023/08/10 00:24:40;;;;;;;88.63;83.05;;;13.00;99.90;;;;;;5008136;28;20082;-81
2023/08/10 00:27:06;;;;;;;92.45;86.88;;;12.90;99.90;;;;;;5009395;28;20189;-82
2023/08/10 00:29:33;;;;;;;85.13;79.90;;;12.90;99.90;;;;;;5007316;28;20042;-81
2023/08/10 00:31:58;;;;;;;62.22;58.40;;;12.80;99.90;;;;;;4991482;28;20038;-81
2023/08/10 00:34:24;;;;;;;91.32;86.07;;;12.80;99.90;;;;;;5007195;28;20038;-81
2023/08/10 00:36:50;;;;;;;84.18;79.30;;;13.10;99.90;;;;;;5008637;28;20165;-81
2023/08/10 00:39:17;;;;;;;90.60;84.82;;;12.90;99.90;;;;;;4991199;28;20038;-81
2023/08/10 00:41:43;;;;;;;99.25;92.97;;;12.70;99.90;;;;;;5007855;28;20049;-81
2023/08/10 00:44:09;;;;;;;85.32;80.25;;;13.20;99.90;;;;;;5008601;28;20045;-81
2023/08/10 00:46:35;;;;;;;94.70;88.93;;;12.60;99.90;;;;;;5007524;28;20042;-81
2023/08/10 00:49:02;;;;;;;79.30;74.68;;;12.60;99.90;;;;;;4998042;28;20065;-81
2023/08/10 00:51:28;;;;;;;96.28;90.80;;;12.40;99.90;;;;;;4989150;28;20694;-81
2023/08/10 00:53:54;;;;;;;87.32;82.07;;;12.40;99.90;;;;;;4987705;28;20125;-81
2023/08/10 00:56:20;;;;;;;87.97;82.65;;;12.40;99.90;;;;;;4989256;28;20121;-81
2023/08/10 00:58:46;;;;;;;76.72;71.95;;;12.70;99.90;;;;;;4988730;28;20050;-81
2023/08/10 01:01:12;;;;;;;93.18;87.80;;;12.50;99.90;;;;;;4971911;28;20405;-80
2023/08/10 01:03:38;;;;;;;80.13;74.93;;;12.50;99.90;;;;;;4987770;28;20038;-81
2023/08/10 01:06:31;;;;;;;86.05;80.82;;;12.80;99.90;;;;;;4988968;28;20034;-81
2023/08/10 01:09:12;;;;;;;77.13;72.60;;;12.60;99.90;;;;;;4987854;28;20101;-80
2023/08/10 01:12:00;;;;;;;77.53;72.78;;;12.60;99.90;;;;;;4987851;28;20034;-81
2023/08/10 01:14:43;;;;;;;77.45;72.63;;;12.70;99.90;;;;;;4971082;28;20100;-81
2023/08/10 01:17:25;;;;;;;73.18;68.30;;;12.70;99.90;;;;;;4971605;28;20127;-81
2023/08/10 01:19:53;;;;;;;77.95;72.95;;;12.70;99.90;;;;;;5003375;28;20093;-81
2023/08/10 01:22:38;;;;;;;84.45;79.30;;;12.80;99.90;;;;;;5008633;28;20050;-81
2023/08/10 01:25:06;;;;;;;79.65;74.90;;;12.90;99.90;;;;;;5007170;28;20078;-81
2023/08/10 01:27:33;;;;;;;81.35;76.40;;;12.90;99.90;;;;;;5007064;28;20050;-81
2023/08/10 01:30:00;;;;;;;87.93;82.55;;;12.90;99.90;;;;;;5007206;28;20056;-81
2023/08/10 01:32:29;;;;;;;78.40;73.45;;;13.00;99.90;;;;;;5006903;28;20046;-81
2023/08/10 01:34:55;;;;;;;81.43;76.38;;;13.00;99.90;;;;;;5007074;28;20056;-81
2023/08/10 01:37:21;;;;;;;81.00;76.05;;;13.00;99.90;;;;;;5005610;28;20027;-81
2023/08/10 01:39:47;;;;;;;89.07;83.30;;;13.00;99.90;;;;;;5007119;28;20045;-81
2023/08/10 01:42:13;;;;;;;84.78;79.38;;;13.00;99.90;;;;;;5008408;28;20415;-82
2023/08/10 01:44:39;;;;;;;73.70;69.30;;;13.10;99.90;;;;;;5007170;28;20034;-81
2023/08/10 01:47:11;;;;;;;72.35;67.47;;;13.10;99.90;;;;;;5009269;28;20121;-81
2023/08/10 01:49:38;;;;;;;78.77;73.67;;;13.10;99.90;;;;;;5010985;28;20402;-81
2023/08/10 01:52:08;;;;;;;81.85;76.88;;;13.20;99.90;;;;;;5011358;28;20048;-81
2023/08/10 01:54:36;;;;;;;93.07;87.68;;;13.10;99.90;;;;;;5010727;28;20071;-81
2023/08/10 01:57:02;;;;;;;73.80;69.38;;;13.20;99.90;;;;;;4993836;28;20049;-81
2023/08/10 01:59:28;;;;;;;71.18;66.88;;;13.10;99.90;;;;;;5010753;28;20388;-81
2023/08/10 02:01:55;;;;;;;68.10;64.05;;;13.20;99.90;;;;;;5012269;28;20041;-81
2023/08/10 02:04:20;;;;;;;80.82;76.07;;;13.20;99.90;;;;;;5010443;28;20049;-81
2023/08/10 02:06:46;;;;;;;67.07;62.92;;;13.40;99.90;;;;;;5007934;28;20049;-81
2023/08/10 02:09:12;;;;;;;77.88;72.80;;;13.30;99.90;;;;;;4974346;28;20065;-81
2023/08/10 02:11:37;;;;;;;87.65;82.63;;;13.30;99.90;;;;;;4990284;28;20042;-81
2023/08/10 02:14:03;;;;;;;91.32;86.03;;;13.30;99.90;;;;;;4992009;28;20049;-81
2023/08/10 02:16:29;;;;;;;95.28;89.57;;;13.30;99.90;;;;;;4991811;28;20133;-81
2023/08/10 02:18:55;;;;;;;75.25;70.25;;;13.20;99.90;;;;;;4991582;28;20121;-81
2023/08/10 02:21:23;;;;;;;87.60;82.28;;;13.20;99.90;;;;;;4974683;28;20096;-81
2023/08/10 02:23:50;;;;;;;70.10;65.72;;;13.10;99.90;;;;;;5011076;28;20189;-81
2023/08/10 02:26:16;;;;;;;93.60;88.20;;;13.10;99.90;;;;;;5009515;28;20496;-81
2023/08/10 02:28:42;;;;;;;83.75;78.80;;;13.00;99.90;;;;;;5010024;28;20034;-82
2023/08/10 02:31:08;;;;;;;89.22;83.90;;;13.00;99.90;;;;;;5009716;28;20030;-82
2023/08/10 02:33:33;;;;;;;86.22;80.80;;;13.10;99.90;;;;;;5010077;28;20400;-81
2023/08/10 02:35:59;;;;;;;87.65;82.55;;;12.90;99.90;;;;;;4993308;28;20088;-81
2023/08/10 02:38:24;;;;;;;78.25;73.80;;;13.30;99.90;;;;;;4994355;28;20030;-81
2023/08/10 02:40:50;;;;;;;77.15;72.47;;;12.90;99.90;;;;;;4989575;28;20133;-81
2023/08/10 02:43:16;;;;;;;76.70;72.20;;;13.00;99.90;;;;;;4990232;28;20194;-81
2023/08/10 02:45:41;;;;;;;83.72;78.70;;;12.90;99.90;;;;;;4990528;28;20441;-81
2023/08/10 02:48:07;;;;;;;80.15;75.50;;;12.90;99.90;;;;;;4991254;28;20038;-81
2023/08/10 02:50:33;;;;;;;90.05;84.50;;;13.00;99.90;;;;;;4989721;28;20096;-80
2023/08/10 02:52:58;;;;;;;97.75;91.72;;;12.90;99.90;;;;;;4986883;28;20057;-81
2023/08/10 02:55:24;;;;;;;82.80;78.05;;;13.20;99.90;;;;;;5008457;28;20160;-81
2023/08/10 02:57:50;;;;;;;64.10;60.50;;;13.00;99.90;;;;;;4992566;28;20042;-81
2023/08/10 03:00:17;;;;;;;85.45;80.10;;;12.90;99.90;;;;;;5009331;28;20045;-81
2023/08/10 03:02:43;;;;;;;80.10;75.47;;;12.90;99.90;;;;;;4992901;28;20048;-81
2023/08/10 03:05:09;;;;;;;73.60;69.18;;;12.90;99.90;;;;;;5010453;28;20485;-81
2023/08/10 03:07:36;;;;;;;84.55;79.65;;;12.90;99.90;;;;;;5001969;28;20038;-81
2023/08/10 03:10:02;;;;;;;79.25;74.45;;;12.90;99.90;;;;;;4989185;28;20046;-81
2023/08/10 03:12:27;;;;;;;82.88;77.63;;;13.00;99.90;;;;;;4989703;28;20388;-81
2023/08/10 03:14:53;;;;;;;95.45;89.38;;;13.10;99.90;;;;;;4989357;28;20125;-81
2023/08/10 03:17:19;;;;;;;88.70;83.43;;;12.90;99.90;;;;;;4989370;28;20481;-81
2023/08/10 03:19:44;;;;;;;100.35;94.43;;;12.90;99.90;;;;;;4972781;28;20086;-81
2023/08/10 03:22:10;;;;;;;96.95;91.32;;;12.80;99.90;;;;;;4986053;28;20051;-81
2023/08/10 03:24:37;;;;;;;110.45;103.82;;;12.90;99.90;;;;;;4969783;28;20441;-81
2023/08/10 03:27:02;;;;;;;75.88;71.40;;;12.80;99.90;;;;;;4971372;28;20082;-81
2023/08/10 03:29:28;;;;;;;107.22;100.43;;;12.80;99.90;;;;;;4981398;28;20086;-81
2023/08/10 03:31:54;;;;;;;99.75;93.57;;;12.80;99.90;;;;;;5008638;28;20074;-81
2023/08/10 03:34:20;;;;;;;92.30;86.60;;;12.80;99.90;;;;;;4991977;28;20403;-81
2023/08/10 03:36:45;;;;;;;95.80;90.28;;;12.90;99.90;;;;;;5008544;28;20038;-81
2023/08/10 03:39:11;;;;;;;100.63;94.45;;;12.90;99.90;;;;;;5007917;28;20073;-81
2023/08/10 03:41:37;;;;;;;90.70;84.97;;;12.90;99.90;;;;;;4993282;28;20049;-81
2023/08/10 03:44:02;;;;;;;95.60;89.75;;;13.00;99.90;;;;;;4989168;28;20050;-81
2023/08/10 03:46:28;;;;;;;77.82;73.25;;;12.90;99.90;;;;;;4988887;28;20503;-81
2023/08/10 03:48:54;;;;;;;85.35;80.15;;;13.00;99.90;;;;;;4972507;28;20533;-81
2023/08/10 03:51:20;;;;;;;105.72;99.60;;;13.00;99.90;;;;;;4972435;28;20038;-81
2023/08/10 03:53:45;;;;;;;93.57;88.07;;;13.00;99.90;;;;;;4971976;28;20038;-81
2023/08/10 03:56:11;;;;;;;103.85;97.47;;;13.00;99.90;;;;;;4988695;28;20038;-81
2023/08/10 03:58:37;;;;;;;94.50;88.57;;;13.00;99.90;;;;;;4974916;28;20038;-82
2023/08/10 04:01:03;;;;;;;89.00;84.00;;;13.00;99.90;;;;;;4993699;28;20408;-81
2023/08/10 04:03:29;;;;;;;92.15;86.43;;;13.00;99.90;;;;;;4988560;28;20042;-81
2023/08/10 04:05:55;;;;;;;102.90;96.63;;;13.10;99.90;;;;;;4988081;28;20038;-81
2023/08/10 04:08:20;;;;;;;104.90;98.53;;;13.10;99.90;;;;;;4988500;28;20049;-81
2023/08/10 04:10:46;;;;;;;72.88;68.53;;;13.10;99.90;;;;;;4972383;28;20162;-81
2023/08/10 04:13:12;;;;;;;66.93;63.03;;;13.10;99.90;;;;;;5004133;28;20494;-83
2023/08/10 04:15:37;;;;;;;95.82;90.10;;;13.10;99.90;;;;;;5009332;28;20093;-82
2023/08/10 04:18:03;;;;;;;82.90;77.75;;;13.10;99.90;;;;;;5007890;28;20189;-81
2023/08/10 04:20:30;;;;;;;84.82;79.38;;;13.20;99.90;;;;;;5005087;28;20444;-82
2023/08/10 04:22:57;;;;;;;71.72;67.40;;;13.20;99.90;;;;;;5003623;28;20046;-81
2023/08/10 04:25:23;;;;;;;78.28;73.63;;;13.20;99.90;;;;;;5008080;28;20056;-81
2023/08/10 04:27:48;;;;;;;88.97;83.70;;;13.10;99.90;;;;;;4992354;28;20116;-81
2023/08/10 04:30:14;;;;;;;78.22;72.90;;;13.20;99.90;;;;;;5007607;28;20121;-82
2023/08/10 04:32:40;;;;;;;58.00;54.35;;;13.30;99.90;;;;;;5009108;28;20049;-81
2023/08/10 04:35:06;;;;;;;74.22;69.72;;;13.30;99.90;;;;;;5007924;28;20423;-82
2023/08/10 04:37:32;;;;;;;64.97;61.08;;;13.40;99.90;;;;;;5007591;28;20131;-82
2023/08/10 04:39:57;;;;;;;73.75;69.00;;;13.40;99.90;;;;;;5007844;28;20496;-82
2023/08/10 04:42:23;;;;;;;68.78;64.45;;;13.40;99.90;;;;;;5007907;28;20057;-82
2023/08/10 04:44:49;;;;;;;60.03;56.38;;;13.40;99.90;;;;;;4995878;28;20038;-81
2023/08/10 04:47:15;;;;;;;78.47;73.88;;;13.40;99.90;;;;;;4988068;28;20516;-82
2023/08/10 04:49:40;;;;;;;69.78;65.07;;;13.50;99.90;;;;;;4987931;28;20428;-82
2023/08/10 04:52:07;;;;;;;66.55;62.08;;;13.50;99.90;;;;;;4971447;28;20038;-81
2023/08/10 04:54:32;;;;;;;63.50;59.40;;;13.60;99.90;;;;;;4972079;28;20047;-81
2023/08/10 04:56:58;;;;;;;63.00;59.38;;;13.60;99.90;;;;;;4989231;28;20033;-82
2023/08/10 04:59:24;;;;;;;80.65;75.88;;;13.70;99.90;;;;;;4988055;28;20099;-81
2023/08/10 05:01:49;;;;;;;63.65;59.72;;;13.70;99.90;;;;;;4987866;28;20038;-81
2023/08/10 05:04:15;;;;;;;56.05;52.70;;;13.70;99.90;;;;;;4994770;28;20038;-81
2023/08/10 05:06:41;;;;;;;73.80;69.40;;;13.80;99.90;;;;;;4990740;28;20522;-81
2023/08/10 05:09:07;;;;;;;82.22;77.22;;;13.80;99.90;;;;;;5008928;28;20085;-81
2023/08/10 05:11:33;;;;;;;50.60;47.42;;;13.90;99.90;;;;;;5008877;28;20042;-81
2023/08/10 05:13:59;;;;;;;48.40;45.50;;;14.00;99.90;;;;;;5008948;28;20034;-81
2023/08/10 05:16:24;;;;;;;63.28;58.45;;;14.00;99.90;;;;;;5007610;28;20034;-81
2023/08/10 05:18:50;;;;;;;48.90;45.92;;;14.10;99.90;;;;;;4991158;28;20405;-81
2023/08/10 05:21:17;;;;;;;59.45;55.88;;;14.10;99.90;;;;;;4976874;28;20042;-81
2023/08/10 05:23:43;;;;;;;34.08;32.00;;;14.10;99.90;;;;;;4972699;28;20042;-81
2023/08/10 05:26:08;;;;;;;41.67;38.88;;;14.20;99.90;;;;;;4956305;28;20548;-81
2023/08/10 05:28:34;;;;;;;33.50;31.17;;;14.30;99.90;;;;;;4972411;28;20548;-81
2023/08/10 05:31:00;;;;;;;49.03;46.00;;;14.40;99.90;;;;;;4973482;28;20405;-81
2023/08/10 05:33:26;;;;;;;41.50;38.83;;;14.50;99.90;;;;;;4972189;28;20425;-81
2023/08/10 05:35:51;;;;;;;37.22;34.47;;;14.70;99.90;;;;;;4991065;28;20400;-82
2023/08/10 05:38:17;;;;;;;33.83;31.45;;;14.70;99.90;;;;;;4992841;28;20041;-81
2023/08/10 05:40:43;;;;;;;32.72;30.35;;;14.80;99.90;;;;;;4991527;28;20555;-81
2023/08/10 05:43:09;;;;;;;32.88;30.50;;;15.10;99.90;;;;;;4991225;28;20042;-81
2023/08/10 05:45:35;;;;;;;40.53;37.72;;;15.10;99.90;;;;;;4974414;28;20042;-81
2023/08/10 05:48:00;;;;;;;43.83;40.75;;;15.10;99.90;;;;;;4991192;28;20038;-81
2023/08/10 05:50:27;;;;;;;26.10;24.27;;;15.30;99.90;;;;;;4972645;28;20113;-81
2023/08/10 05:52:53;;;;;;;39.75;37.03;;;15.40;99.90;;;;;;4971349;28;20190;-81
2023/08/10 05:55:19;;;;;;;39.70;37.20;;;15.50;99.90;;;;;;4971493;28;20121;-81
2023/08/10 05:57:45;;;;;;;17.15;14.77;;;15.60;99.90;;;;;;4955334;28;20630;-81
2023/08/10 06:00:14;;;;;;;25.70;23.65;;;15.80;99.90;;;;;;4971197;28;20118;-82
2023/08/10 06:02:41;;;;;;;23.15;21.40;;;15.70;99.90;;;;;;4972825;28;20129;-81
2023/08/10 06:05:07;;;;;;;18.45;16.77;;;15.70;99.90;;;;;;4987808;28;20042;-81
2023/08/10 06:07:33;;;;;;;23.80;22.00;;;15.70;99.90;;;;;;4991017;28;20193;-81
2023/08/10 06:09:59;;;;;;;25.08;23.02;;;15.80;99.90;;;;;;4990792;28;20057;-81
2023/08/10 06:12:25;;;;;;;17.63;16.05;;;16.00;99.90;;;;;;4990557;28;20125;-82
2023/08/10 06:14:51;;;;;;;43.10;39.90;;;16.10;99.90;;;;;;4990944;28;20130;-81
2023/08/10 06:17:16;;;;;;;19.15;17.63;;;16.20;99.90;;;;;;4990691;28;20611;-81
2023/08/10 06:19:51;;;;;;;20.50;18.70;;;16.60;99.90;;;;;;4989778;28;20484;-81
2023/08/10 06:22:17;;;;;;;35.72;33.47;;;17.50;99.90;;;;;;4991764;28;20129;-82
2023/08/10 06:24:43;;;;;;;36.47;34.05;;;18.90;99.90;;;;;;4974578;28;20054;-82
2023/08/10 06:27:09;;;;;;;14.63;13.50;;;20.30;99.90;;;;;;4974732;28;20105;-82
2023/08/10 06:29:35;;;;;;;11.15;10.15;;;21.60;99.90;;;;;;4992010;28;20042;-82
2023/08/10 06:32:05;;;;;;;11.80;6.22;;;22.60;99.90;;;;;;4989922;28;20413;-82
2023/08/10 06:34:31;;;;;;;8.25;6.43;;;23.60;99.90;;;;;;4986394;28;20073;-82
2023/08/10 06:36:57;;;;;;;12.50;11.30;;;24.40;99.90;;;;;;4954740;28;20047;-82
2023/08/10 06:39:23;;;;;;;33.33;31.23;;;25.00;99.90;;;;;;4955079;28;20039;-82
2023/08/10 06:41:49;;;;;;;114.88;108.47;;;25.50;99.90;;;;;;4970654;28;20053;-82
2023/08/10 06:44:15;;;;;;;1999.90;999.90;;;26.00;99.90;;;;;;4972078;28;20038;-82
2023/08/10 06:46:41;;;;;;;1999.90;924.10;;;26.30;99.90;;;;;;4954407;28;20130;-82
2023/08/10 06:49:07;;;;;;;1999.90;925.42;;;26.70;99.70;;;;;;4954513;28;20092;-83
2023/08/10 06:51:33;;;;;;;1999.90;604.35;;;26.90;99.40;;;;;;4954649;28;20056;-82
2023/08/10 06:53:59;;;;;;;1999.90;999.90;;;27.30;99.40;;;;;;4955005;28;20051;-83
2023/08/10 06:56:24;;;;;;;1999.90;999.90;;;27.90;99.30;;;;;;4954644;28;20393;-82
2023/08/10 06:58:51;;;;;;;1999.90;999.90;;;27.50;97.90;;;;;;4971442;28;20491;-82
2023/08/10 07:01:17;;;;;;;1999.90;999.90;;;26.60;98.80;;;;;;4954150;28;20039;-83
2023/08/10 07:03:43;;;;;;;1999.90;999.90;;;25.70;99.00;;;;;;4970530;28;20041;-83
2023/08/10 07:06:08;;;;;;;1999.90;999.90;;;25.10;98.50;;;;;;4970421;28;20647;-83
2023/08/10 07:08:34;;;;;;;1999.90;999.90;;;24.40;99.90;;;;;;4970008;28;20046;-82
2023/08/10 07:11:02;;;;;;;1999.90;999.90;;;24.60;99.90;;;;;;4971722;28;20035;-83
2023/08/10 07:13:28;;;;;;;1999.90;999.90;;;25.00;99.90;;;;;;4954194;28;20085;-83
2023/08/10 07:15:53;;;;;;;1999.90;999.90;;;25.50;99.40;;;;;;4954266;28;20082;-82
2023/08/10 07:18:19;;;;;;;1999.90;999.90;;;26.00;99.10;;;;;;4970678;28;20034;-83
2023/08/10 07:20:45;;;;;;;1999.90;999.90;;;26.40;98.70;;;;;;4954127;28;20086;-83
2023/08/10 07:23:11;;;;;;;1999.90;999.90;;;26.70;96.70;;;;;;4970638;28;20550;-82
2023/08/10 07:25:37;;;;;;;1999.90;999.90;;;27.10;97.40;;;;;;4970394;28;20133;-83
2023/08/10 07:28:05;;;;;;;1999.90;999.90;;;27.50;96.90;;;;;;4986704;28;20038;-83
2023/08/10 07:30:31;;;;;;;1999.90;999.90;;;27.90;96.80;;;;;;4991296;28;20133;-83
2023/08/10 07:32:57;;;;;;;1999.90;999.90;;;28.10;95.60;;;;;;4989762;28;20568;-83
2023/08/10 07:35:23;;;;;;;1999.90;999.90;;;28.30;96.70;;;;;;4973773;28;20496;-83
2023/08/10 07:37:49;;;;;;;1999.90;999.90;;;27.80;94.60;;;;;;4991392;28;20121;-83
2023/08/10 07:40:15;;;;;;;1999.90;999.90;;;27.90;95.70;;;;;;4991921;28;20121;-83
2023/08/10 07:42:41;;;;;;;1999.90;999.90;;;28.10;94.90;;;;;;4990109;28;20720;-83
2023/08/10 07:45:10;;;;;;;1999.90;999.90;;;28.30;95.20;;;;;;4992748;28;20082;-84
2023/08/10 07:47:37;;;;;;;1999.90;999.90;;;28.50;95.50;;;;;;4993069;28;20034;-84
2023/08/10 07:50:03;;;;;;;1999.90;999.90;;;28.10;94.00;;;;;;4984898;28;20039;-84
2023/08/10 07:52:29;;;;;;;1999.90;999.90;;;28.10;94.60;;;;;;4991284;28;20057;-84
2023/08/10 07:54:55;;;;;;;1999.90;999.90;;;26.90;95.10;;;;;;4990414;28;20513;-85
2023/08/10 07:57:21;;;;;;;1999.90;999.90;;;26.20;96.00;;;;;;4991199;28;20625;-83
2023/08/10 07:59:46;;;;;;;1999.90;999.90;;;25.40;96.30;;;;;;4991707;28;20045;-83
2023/08/10 08:02:12;;;;;;;1999.90;999.90;;;25.10;97.20;;;;;;4991471;28;20054;-83
2023/08/10 08:04:38;;;;;;;1999.90;999.90;;;24.80;97.90;;;;;;4989904;28;20046;-84
2023/08/10 08:07:04;;;;;;;1999.90;999.90;;;24.50;97.50;;;;;;4989259;28;20141;-83
2023/08/10 08:09:29;;;;;;;1999.90;999.90;;;24.10;97.90;;;;;;4989970;28;20045;-83
2023/08/10 08:11:55;;;;;;;1999.90;999.90;;;24.00;98.30;;;;;;4989487;28;20046;-83
2023/08/10 08:14:21;;;;;;;1999.90;999.90;;;23.60;98.40;;;;;;4990968;28;20121;-83
2023/08/10 08:16:46;;;;;;;1999.90;999.90;;;23.20;98.60;;;;;;4988944;28;20034;-83
2023/08/10 08:19:13;;;;;;;1669.57;785.63;;;22.80;99.10;;;;;;4988958;28;20050;-83
2023/08/10 08:21:38;;;;;;;1447.80;316.40;;;22.60;99.90;;;;;;4989221;28;20093;-83
2023/08/10 08:24:04;;;;;;;1999.90;588.55;;;22.50;99.90;;;;;;4990667;28;20082;-82
2023/08/10 08:26:32;;;;;;;1999.90;570.13;;;22.30;99.90;;;;;;4990347;28;20046;-83
2023/08/10 08:28:58;;;;;;;1999.90;758.08;;;22.10;99.90;;;;;;4988418;28;20097;-82
2023/08/10 08:31:25;;;;;;;1999.90;733.58;;;22.10;99.90;;;;;;4989544;28;20065;-83
2023/08/10 08:33:51;;;;;;;1888.65;429.88;;;21.90;99.90;;;;;;4990233;28;20043;-83
2023/08/10 08:36:18;;;;;;;1999.90;999.90;;;21.80;99.90;;;;;;4988913;28;20061;-81
2023/08/10 08:38:44;;;;;;;1999.90;679.95;;;21.80;99.90;;;;;;4989174;28;20061;-83
2023/08/10 08:41:10;;;;;;;1999.90;584.42;;;21.70;99.90;;;;;;4989642;28;20501;-83
2023/08/10 08:43:37;;;;;;;1957.90;511.00;;;21.60;99.90;;;;;;4987860;28;20058;-83
2023/08/10 08:46:04;;;;;;;1940.05;453.77;;;21.70;99.90;;;;;;4989207;28;20104;-84
2023/08/10 08:48:31;;;;;;;1999.90;583.78;;;21.70;99.90;;;;;;4988859;28;20034;-82
2023/08/10 08:50:57;;;;;;;1999.90;566.60;;;21.60;99.90;;;;;;4987880;28;20048;-82
2023/08/10 08:53:24;;;;;;;1999.90;795.75;;;21.70;99.90;;;;;;4987982;28;20121;-82
2023/08/10 08:55:50;;;;;;;1999.90;999.90;;;21.70;99.90;;;;;;4989873;28;20039;-82
2023/08/10 08:58:16;;;;;;;1851.95;454.20;;;21.50;99.90;;;;;;4993618;28;20077;-83
2023/08/10 09:00:52;;;;;;;1999.90;649.53;;;21.60;99.90;;;;;;4991939;28;20082;-83
2023/08/10 09:03:18;;;;;;;1999.90;768.10;;;21.70;99.90;;;;;;4991472;28;20042;-83
2023/08/10 09:05:46;;;;;;;1999.90;735.80;;;21.80;99.90;;;;;;4993072;28;20122;-83
2023/08/10 09:08:16;;;;;;;1806.20;404.45;;;21.70;99.90;;;;;;4993349;28;20042;-83
2023/08/10 09:10:46;;;;;;;1804.38;819.58;;;21.80;99.90;;;;;;4993427;28;20775;-83
2023/08/10 09:13:31;;;;;;;1999.90;550.92;;;21.80;99.90;;;;;;4991447;28;20096;-82
2023/08/10 09:16:04;;;;;;;1875.20;436.63;;;21.80;99.90;;;;;;4988524;28;20073;-82
2023/08/10 09:18:33;;;;;;;1999.90;999.90;;;21.80;99.90;;;;;;4972160;28;20050;-83
2023/08/10 09:21:19;;;;;;;1999.90;999.90;;;21.80;99.90;;;;;;4972187;28;20058;-82
2023/08/10 09:23:47;;;;;;;1873.75;456.38;;;21.70;99.90;;;;;;4972211;28;20097;-82
2023/08/10 09:26:16;;;;;;;1902.55;421.48;;;21.80;99.90;;;;;;4971515;28;20520;-82
2023/08/10 09:28:42;;;;;;;1999.90;999.90;;;21.90;99.90;;;;;;4973542;28;20183;-81
2023/08/10 09:31:10;;;;;;;1999.90;999.90;;;21.90;99.90;;;;;;4973021;28;20060;-82
2023/08/10 09:33:37;;;;;;;1940.80;414.95;;;22.00;99.90;;;;;;4971658;28;20043;-82
2023/08/10 09:36:04;;;;;;;1975.57;493.65;;;22.10;99.90;;;;;;4972978;28;20275;-82
2023/08/10 09:38:30;;;;;;;1816.97;813.72;;;22.00;99.90;;;;;;4971407;28;20076;-82
2023/08/10 09:41:11;;;;;;;1999.90;999.90;;;22.20;99.90;;;;;;4972604;28;20043;-82
2023/08/10 09:43:42;;;;;;;1999.90;999.90;;;22.30;99.90;;;;;;4971391;28;20142;-82
2023/08/10 09:46:09;;;;;;;1999.90;999.90;;;22.30;99.90;;;;;;4971518;28;20046;-83
2023/08/10 09:48:36;;;;;;;1999.90;999.90;;;22.30;99.90;;;;;;4971273;28;20043;-82
2023/08/10 09:51:06;;;;;;;1999.90;999.90;;;22.30;99.90;;;;;;4955055;28;20035;-82
2023/08/10 09:53:32;;;;;;;1999.90;999.90;;;22.50;99.90;;;;;;4970625;28;20051;-82
2023/08/10 09:55:59;;;;;;;1999.90;999.90;;;22.60;99.90;;;;;;4972209;28;20049;-82
2023/08/10 09:58:25;;;;;;;1999.90;999.90;;;22.70;99.90;;;;;;4972620;28;20034;-82
2023/08/10 10:00:51;;;;;;;1999.90;999.90;;;22.80;99.90;;;;;;4978960;28;20181;-82
2023/08/10 10:03:17;;;;;;;1999.90;999.90;;;22.90;99.90;;;;;;4990228;28;20522;-82
2023/08/10 10:05:43;;;;;;;1999.90;999.90;;;23.00;99.90;;;;;;4991464;28;20055;-82
2023/08/10 10:08:14;;;;;;;1999.90;999.90;;;23.10;99.90;;;;;;4991596;28;20057;-83
2023/08/10 10:10:43;;;;;;;1999.90;999.90;;;23.10;99.90;;;;;;4991569;28;20034;-84
2023/08/10 10:13:15;;;;;;;1999.90;999.90;;;23.10;99.90;;;;;;4992902;28;20057;-84
2023/08/10 10:15:42;;;;;;;1999.90;999.90;;;22.80;99.30;;;;;;4987011;28;20043;-84
2023/08/10 10:18:09;;;;;;;1999.90;999.90;;;22.60;99.90;;;;;;4971267;28;20187;-83
2023/08/10 10:20:39;;;;;;;1999.90;999.90;;;22.60;99.90;;;;;;4954857;28;20185;-84
2023/08/10 10:23:19;;;;;;;1999.90;999.90;;;22.40;99.90;;;;;;4954985;28;20038;-83
2023/08/10 10:26:08;;;;;;;1999.90;999.90;;;22.40;99.90;;;;;;4970628;28;20039;-84
2023/08/10 10:28:34;;;;;;;1999.90;999.90;;;22.50;99.90;;;;;;4972145;28;20512;-82
2023/08/10 10:31:10;;;;;;;1999.90;999.90;;;22.40;99.90;;;;;;4983606;28;20038;-82
2023/08/10 10:33:38;;;;;;;1999.90;999.90;;;22.40;99.90;;;;;;4989637;28;20104;-82
2023/08/10 10:36:07;;;;;;;1999.90;999.90;;;22.40;99.90;;;;;;4990180;28;20039;-81
2023/08/10 10:38:33;;;;;;;1999.90;999.90;;;22.40;99.90;;;;;;4990271;28;20221;-82
2023/08/10 10:41:15;;;;;;;1590.43;759.90;;;22.40;99.90;;;;;;4991952;28;20195;-81
2023/08/10 10:43:44;;;;;;;1999.90;999.90;;;22.40;99.90;;;;;;4992879;28;20093;-81
2023/08/10 10:46:32;;;;;;;1744.68;788.83;;;22.40;99.90;;;;;;5006066;28;20049;-81
2023/08/10 10:48:59;;;;;;;1999.90;999.90;;;22.50;99.90;;;;;;5013490;28;20056;-81
2023/08/10 10:51:26;;;;;;;1999.90;999.90;;;22.40;99.90;;;;;;5016549;28;20048;-82
2023/08/10 10:53:55;;;;;;;1999.90;999.90;;;22.50;99.90;;;;;;5000669;28;20038;-82
2023/08/10 10:56:21;;;;;;;1999.90;999.90;;;22.50;99.90;;;;;;4991277;28;20132;-81
2023/08/10 10:58:48;;;;;;;1999.90;999.90;;;22.50;99.90;;;;;;4989732;28;20080;-81
2023/08/10 11:01:21;;;;;;;1513.18;324.85;;;22.40;99.90;;;;;;5006098;28;20069;-82
2023/08/10 11:03:53;;;;;;;;;;;22.40;99.90;;;;;;5010839;28;20061;-81
2023/08/10 11:06:20;;;;;;;1720.97;791.95;;;22.30;99.90;;;;;;5008734;28;19940;-81
2023/08/10 11:08:55;;;;;;;1605.22;365.75;;;22.50;99.90;;;;;;5008224;28;20046;-81
2023/08/10 11:11:24;;;;;;;1948.47;488.50;;;22.40;99.90;;;;;;5008549;28;20038;-81
2023/08/10 11:13:52;;;;;;;1999.90;999.90;;;22.60;99.90;;;;;;5008417;28;20141;-81
2023/08/10 11:16:18;;;;;;;1999.90;999.90;;;22.70;99.90;;;;;;5009023;28;20030;-82
2023/08/10 11:18:47;;;;;;;1999.90;999.90;;;22.80;99.90;;;;;;5007412;28;20034;-81
2023/08/10 11:21:13;;;;;;;1999.90;999.90;;;22.80;99.90;;;;;;5008667;28;20140;-81
2023/08/10 11:23:39;;;;;;;1999.90;999.90;;;22.70;99.90;;;;;;5009307;28;20565;-81
2023/08/10 11:26:05;;;;;;;1999.90;999.90;;;22.90;99.90;;;;;;5008214;28;20042;-81
2023/08/10 11:28:31;;;;;;;1999.90;999.90;;;22.90;99.90;;;;;;5008064;28;20045;-81
2023/08/10 11:31:01;;;;;;;1999.90;999.90;;;22.90;99.90;;;;;;5007572;28;20052;-82
2023/08/10 11:33:27;;;;;;;1999.90;999.90;;;23.00;99.90;;;;;;5007787;28;20121;-82
2023/08/10 11:35:53;;;;;;;1999.90;999.90;;;23.00;99.90;;;;;;5008091;28;20141;-81
2023/08/10 11:38:20;;;;;;;1999.90;999.90;;;23.00;99.90;;;;;;5007988;28;20120;-82
2023/08/10 11:40:46;;;;;;;1999.90;999.90;;;23.10;99.90;;;;;;5009237;28;20069;-82
2023/08/10 11:43:15;;;;;;;1999.90;999.90;;;23.10;99.90;;;;;;4969819;28;20042;-82
2023/08/10 11:45:42;;;;;;;1999.90;999.90;;;23.20;99.90;;;;;;4969069;28;20137;-81
2023/08/10 11:48:11;;;;;;;1999.90;999.90;;;23.40;99.90;;;;;;4970578;28;20047;-82
2023/08/10 11:50:38;;;;;;;1999.90;999.90;;;23.30;99.90;;;;;;4975033;28;20038;-86
2023/08/10 11:53:16;;;;;;;1999.90;999.90;;;23.40;99.90;;;;;;4957905;28;20034;-84
2023/08/10 11:55:50;;;;;;;1999.90;999.90;;;23.50;99.90;;;;;;4973342;28;20070;-83
2023/08/10 11:58:18;;;;;;;1999.90;999.90;;;23.30;99.90;;;;;;4991176;28;20041;-84
2023/08/10 12:00:56;;;;;;;1999.90;999.90;;;23.40;99.90;;;;;;4999783;28;20045;-82
2023/08/10 12:03:21;;;;;;;1999.90;999.90;;;23.40;99.90;;;;;;4989280;28;20042;-83
2023/08/10 12:05:52;;;;;;;1999.90;999.90;;;23.40;99.90;;;;;;4972362;28;20557;-83
2023/08/10 12:08:26;;;;;;;1999.90;999.90;;;23.50;99.90;;;;;;4990795;28;20038;-83
2023/08/10 12:11:13;;;;;;;1999.90;999.90;;;23.40;99.90;;;;;;4989751;28;20114;-83
2023/08/10 12:13:44;;;;;;;1999.90;999.90;;;23.60;99.90;;;;;;5008396;28;20120;-83